sensor_id;sensor_type;location;lat;lon;timestamp;P1;durP1;ratioP1;P2;durP2;ratioP2
15132;SDS011;7667;51.232;17.110;2022-12-18T00:01:26;44.10;;;21.13;;
15132;SDS011;7667;51.232;17.110;2022-12-18T00:04:03;42.53;;;20.57;;
15132;SDS011;7667;51.232;17.110;2022-12-18T00:06:38;42.17;;;20.10;;
15132;SDS011;7667;51.232;17.110;2022-12-18T00:09:06;45.67;;;22.03;;
15132;SDS011;7667;51.232;17.110;2022-12-18T00:11:33;44.10;;;20.37;;
15132;SDS011;7667;51.232;17.110;2022-12-18T00:14:01;48.30;;;20.97;;
15132;SDS011;7667;51.232;17.110;2022-12-18T00:16:29;41.63;;;20.40;;
15132;SDS011;7667;51.232;17.110;2022-12-18T00:18:59;40.83;;;19.97;;
15132;SDS011;7667;51.232;17.110;2022-12-18T00:21:28;42.43;;;19.93;;
15132;SDS011;7667;51.232;17.110;2022-12-18T00:23:57;43.77;;;21.53;;
15132;SDS011;7667;51.232;17.110;2022-12-18T00:26:27;47.40;;;21.90;;
15132;SDS011;7667;51.232;17.110;2022-12-18T00:29:04;49.80;;;22.43;;
15132;SDS011;7667;51.232;17.110;2022-12-18T00:31:40;45.47;;;21.13;;
15132;SDS011;7667;51.232;17.110;2022-12-18T00:34:10;48.37;;;20.90;;
15132;SDS011;7667;51.232;17.110;2022-12-18T00:36:39;45.40;;;21.73;;
15132;SDS011;7667;51.232;17.110;2022-12-18T00:39:07;49.17;;;23.97;;
15132;SDS011;7667;51.232;17.110;2022-12-18T00:41:37;41.67;;;20.83;;
15132;SDS011;7667;51.232;17.110;2022-12-18T00:44:23;44.33;;;20.33;;
15132;SDS011;7667;51.232;17.110;2022-12-18T00:46:50;47.20;;;22.43;;
15132;SDS011;7667;51.232;17.110;2022-12-18T00:49:18;46.27;;;21.80;;
15132;SDS011;7667;51.232;17.110;2022-12-18T00:51:47;45.70;;;20.53;;
15132;SDS011;7667;51.232;17.110;2022-12-18T00:54:15;46.93;;;22.63;;
15132;SDS011;7667;51.232;17.110;2022-12-18T00:56:43;47.23;;;21.83;;
15132;SDS011;7667;51.232;17.110;2022-12-18T00:59:15;35.73;;;17.83;;
15132;SDS011;7667;51.232;17.110;2022-12-18T01:01:44;44.40;;;21.00;;
15132;SDS011;7667;51.232;17.110;2022-12-18T01:04:12;42.97;;;18.53;;
15132;SDS011;7667;51.232;17.110;2022-12-18T01:06:40;40.20;;;20.13;;
15132;SDS011;7667;51.232;17.110;2022-12-18T01:09:08;42.00;;;19.33;;
15132;SDS011;7667;51.232;17.110;2022-12-18T01:11:35;44.73;;;21.53;;
15132;SDS011;7667;51.232;17.110;2022-12-18T01:14:03;42.57;;;20.67;;
15132;SDS011;7667;51.232;17.110;2022-12-18T01:16:31;46.33;;;20.93;;
15132;SDS011;7667;51.232;17.110;2022-12-18T01:18:58;46.80;;;22.77;;
15132;SDS011;7667;51.232;17.110;2022-12-18T01:21:26;43.83;;;20.97;;
15132;SDS011;7667;51.232;17.110;2022-12-18T01:23:54;45.00;;;21.10;;
15132;SDS011;7667;51.232;17.110;2022-12-18T01:26:23;43.57;;;20.13;;
15132;SDS011;7667;51.232;17.110;2022-12-18T01:28:53;42.27;;;19.60;;
15132;SDS011;7667;51.232;17.110;2022-12-18T01:31:24;43.67;;;20.10;;
15132;SDS011;7667;51.232;17.110;2022-12-18T01:33:57;46.63;;;18.93;;
15132;SDS011;7667;51.232;17.110;2022-12-18T01:36:29;44.23;;;19.80;;
15132;SDS011;7667;51.232;17.110;2022-12-18T01:38:59;40.07;;;20.33;;
15132;SDS011;7667;51.232;17.110;2022-12-18T01:41:47;47.30;;;22.47;;
15132;SDS011;7667;51.232;17.110;2022-12-18T01:50:17;40.77;;;19.23;;
15132;SDS011;7667;51.232;17.110;2022-12-18T01:53:07;41.37;;;19.63;;
15132;SDS011;7667;51.232;17.110;2022-12-18T01:55:44;36.93;;;18.73;;
15132;SDS011;7667;51.232;17.110;2022-12-18T01:58:30;39.93;;;19.40;;
15132;SDS011;7667;51.232;17.110;2022-12-18T02:01:17;37.53;;;18.27;;
15132;SDS011;7667;51.232;17.110;2022-12-18T02:03:47;36.37;;;17.60;;
15132;SDS011;7667;51.232;17.110;2022-12-18T02:06:29;36.07;;;17.73;;
15132;SDS011;7667;51.232;17.110;2022-12-18T02:09:13;37.30;;;17.23;;
15132;SDS011;7667;51.232;17.110;2022-12-18T02:17:04;38.23;;;18.93;;
15132;SDS011;7667;51.232;17.110;2022-12-18T02:28:59;36.37;;;18.67;;
15132;SDS011;7667;51.232;17.110;2022-12-18T02:31:35;33.67;;;16.20;;
15132;SDS011;7667;51.232;17.110;2022-12-18T02:34:12;33.50;;;16.50;;
15132;SDS011;7667;51.232;17.110;2022-12-18T02:36:41;35.20;;;17.67;;
15132;SDS011;7667;51.232;17.110;2022-12-18T02:39:12;31.23;;;15.97;;
15132;SDS011;7667;51.232;17.110;2022-12-18T02:41:42;33.40;;;16.30;;
15132;SDS011;7667;51.232;17.110;2022-12-18T02:44:10;29.90;;;15.07;;
15132;SDS011;7667;51.232;17.110;2022-12-18T02:46:43;30.40;;;16.03;;
15132;SDS011;7667;51.232;17.110;2022-12-18T03:01:18;28.97;;;15.53;;
15132;SDS011;7667;51.232;17.110;2022-12-18T03:07:33;27.83;;;14.17;;
15132;SDS011;7667;51.232;17.110;2022-12-18T03:10:27;26.87;;;15.20;;
15132;SDS011;7667;51.232;17.110;2022-12-18T03:13:00;30.63;;;15.70;;
15132;SDS011;7667;51.232;17.110;2022-12-18T03:15:41;27.97;;;14.57;;
15132;SDS011;7667;51.232;17.110;2022-12-18T03:18:17;25.63;;;14.70;;
15132;SDS011;7667;51.232;17.110;2022-12-18T03:20:50;28.60;;;14.57;;
15132;SDS011;7667;51.232;17.110;2022-12-18T03:23:21;31.13;;;15.40;;
15132;SDS011;7667;51.232;17.110;2022-12-18T03:25:58;28.50;;;14.77;;
15132;SDS011;7667;51.232;17.110;2022-12-18T03:28:34;28.10;;;15.00;;
15132;SDS011;7667;51.232;17.110;2022-12-18T03:31:07;29.23;;;15.07;;
15132;SDS011;7667;51.232;17.110;2022-12-18T03:33:42;26.90;;;15.00;;
15132;SDS011;7667;51.232;17.110;2022-12-18T03:36:20;29.50;;;15.33;;
15132;SDS011;7667;51.232;17.110;2022-12-18T03:38:49;26.83;;;14.03;;
15132;SDS011;7667;51.232;17.110;2022-12-18T03:41:29;27.23;;;14.63;;
15132;SDS011;7667;51.232;17.110;2022-12-18T03:47:06;27.87;;;14.57;;
15132;SDS011;7667;51.232;17.110;2022-12-18T03:50:02;25.70;;;13.67;;
15132;SDS011;7667;51.232;17.110;2022-12-18T03:52:43;25.17;;;13.00;;
15132;SDS011;7667;51.232;17.110;2022-12-18T03:55:24;25.43;;;12.87;;
15132;SDS011;7667;51.232;17.110;2022-12-18T03:57:54;24.37;;;13.53;;
15132;SDS011;7667;51.232;17.110;2022-12-18T04:00:23;24.70;;;13.27;;
15132;SDS011;7667;51.232;17.110;2022-12-18T04:02:51;24.30;;;13.53;;
15132;SDS011;7667;51.232;17.110;2022-12-18T04:05:21;27.87;;;14.77;;
15132;SDS011;7667;51.232;17.110;2022-12-18T04:07:51;26.33;;;13.10;;
15132;SDS011;7667;51.232;17.110;2022-12-18T04:10:20;26.53;;;13.63;;
15132;SDS011;7667;51.232;17.110;2022-12-18T04:12:48;24.30;;;12.40;;
15132;SDS011;7667;51.232;17.110;2022-12-18T04:15:15;25.03;;;13.10;;
15132;SDS011;7667;51.232;17.110;2022-12-18T04:17:46;21.87;;;13.17;;
15132;SDS011;7667;51.232;17.110;2022-12-18T04:20:15;22.30;;;13.63;;
15132;SDS011;7667;51.232;17.110;2022-12-18T04:22:44;24.80;;;14.07;;
15132;SDS011;7667;51.232;17.110;2022-12-18T04:25:11;26.80;;;14.37;;
15132;SDS011;7667;51.232;17.110;2022-12-18T04:27:40;27.53;;;14.13;;
15132;SDS011;7667;51.232;17.110;2022-12-18T04:30:08;23.43;;;13.07;;
15132;SDS011;7667;51.232;17.110;2022-12-18T04:32:35;29.07;;;14.27;;
15132;SDS011;7667;51.232;17.110;2022-12-18T04:35:03;27.57;;;13.90;;
15132;SDS011;7667;51.232;17.110;2022-12-18T04:37:33;22.20;;;13.23;;
15132;SDS011;7667;51.232;17.110;2022-12-18T04:40:00;23.00;;;12.80;;
15132;SDS011;7667;51.232;17.110;2022-12-18T04:42:28;22.83;;;12.13;;
15132;SDS011;7667;51.232;17.110;2022-12-18T04:44:55;23.73;;;12.80;;
15132;SDS011;7667;51.232;17.110;2022-12-18T04:47:22;25.27;;;14.53;;
15132;SDS011;7667;51.232;17.110;2022-12-18T04:49:50;27.93;;;13.93;;
15132;SDS011;7667;51.232;17.110;2022-12-18T04:52:17;24.33;;;13.60;;
15132;SDS011;7667;51.232;17.110;2022-12-18T04:54:45;27.20;;;14.17;;
15132;SDS011;7667;51.232;17.110;2022-12-18T04:57:12;24.73;;;13.93;;
15132;SDS011;7667;51.232;17.110;2022-12-18T04:59:40;25.33;;;12.87;;
15132;SDS011;7667;51.232;17.110;2022-12-18T05:02:07;28.50;;;14.30;;
15132;SDS011;7667;51.232;17.110;2022-12-18T05:04:35;26.30;;;14.40;;
15132;SDS011;7667;51.232;17.110;2022-12-18T05:07:02;25.87;;;14.93;;
15132;SDS011;7667;51.232;17.110;2022-12-18T05:09:30;26.67;;;13.93;;
15132;SDS011;7667;51.232;17.110;2022-12-18T05:11:57;26.67;;;14.27;;
15132;SDS011;7667;51.232;17.110;2022-12-18T05:14:25;22.80;;;12.77;;
15132;SDS011;7667;51.232;17.110;2022-12-18T05:16:54;27.30;;;14.53;;
15132;SDS011;7667;51.232;17.110;2022-12-18T05:19:26;23.30;;;14.07;;
15132;SDS011;7667;51.232;17.110;2022-12-18T05:21:53;26.17;;;15.00;;
15132;SDS011;7667;51.232;17.110;2022-12-18T05:24:21;26.60;;;15.50;;
15132;SDS011;7667;51.232;17.110;2022-12-18T05:26:48;27.77;;;15.20;;
15132;SDS011;7667;51.232;17.110;2022-12-18T05:29:16;26.73;;;15.17;;
15132;SDS011;7667;51.232;17.110;2022-12-18T05:31:43;27.50;;;14.67;;
15132;SDS011;7667;51.232;17.110;2022-12-18T05:34:11;29.13;;;15.80;;
15132;SDS011;7667;51.232;17.110;2022-12-18T05:36:39;30.43;;;17.60;;
15132;SDS011;7667;51.232;17.110;2022-12-18T05:39:06;25.37;;;15.13;;
15132;SDS011;7667;51.232;17.110;2022-12-18T05:41:34;26.13;;;14.20;;
15132;SDS011;7667;51.232;17.110;2022-12-18T05:44:02;27.50;;;15.77;;
15132;SDS011;7667;51.232;17.110;2022-12-18T05:46:31;25.07;;;14.37;;
15132;SDS011;7667;51.232;17.110;2022-12-18T05:48:59;26.33;;;14.47;;
15132;SDS011;7667;51.232;17.110;2022-12-18T05:51:27;25.40;;;14.63;;
15132;SDS011;7667;51.232;17.110;2022-12-18T05:53:55;28.17;;;15.87;;
15132;SDS011;7667;51.232;17.110;2022-12-18T05:56:22;27.83;;;14.73;;
15132;SDS011;7667;51.232;17.110;2022-12-18T05:58:53;25.30;;;14.57;;
15132;SDS011;7667;51.232;17.110;2022-12-18T06:01:23;27.23;;;16.07;;
15132;SDS011;7667;51.232;17.110;2022-12-18T06:03:53;26.13;;;15.00;;
15132;SDS011;7667;51.232;17.110;2022-12-18T06:06:22;26.43;;;15.43;;
15132;SDS011;7667;51.232;17.110;2022-12-18T06:08:53;22.80;;;13.87;;
15132;SDS011;7667;51.232;17.110;2022-12-18T06:11:23;31.10;;;19.30;;
15132;SDS011;7667;51.232;17.110;2022-12-18T06:13:53;24.73;;;14.40;;
15132;SDS011;7667;51.232;17.110;2022-12-18T06:16:24;24.70;;;13.93;;
15132;SDS011;7667;51.232;17.110;2022-12-18T06:18:55;25.87;;;15.13;;
15132;SDS011;7667;51.232;17.110;2022-12-18T06:21:25;26.97;;;14.33;;
15132;SDS011;7667;51.232;17.110;2022-12-18T06:23:54;25.03;;;14.27;;
15132;SDS011;7667;51.232;17.110;2022-12-18T06:26:22;25.57;;;14.30;;
15132;SDS011;7667;51.232;17.110;2022-12-18T06:28:54;26.53;;;14.90;;
15132;SDS011;7667;51.232;17.110;2022-12-18T06:31:21;23.93;;;14.93;;
15132;SDS011;7667;51.232;17.110;2022-12-18T06:33:49;26.97;;;14.97;;
15132;SDS011;7667;51.232;17.110;2022-12-18T06:36:17;28.07;;;14.93;;
15132;SDS011;7667;51.232;17.110;2022-12-18T06:38:44;27.23;;;15.67;;
15132;SDS011;7667;51.232;17.110;2022-12-18T06:41:13;25.57;;;14.60;;
15132;SDS011;7667;51.232;17.110;2022-12-18T06:43:43;27.20;;;15.87;;
15132;SDS011;7667;51.232;17.110;2022-12-18T06:46:11;33.27;;;17.90;;
15132;SDS011;7667;51.232;17.110;2022-12-18T06:48:39;29.00;;;16.67;;
15132;SDS011;7667;51.232;17.110;2022-12-18T06:51:07;26.67;;;15.07;;
15132;SDS011;7667;51.232;17.110;2022-12-18T06:53:35;23.30;;;13.03;;
15132;SDS011;7667;51.232;17.110;2022-12-18T06:56:04;25.73;;;15.97;;
15132;SDS011;7667;51.232;17.110;2022-12-18T06:58:37;27.67;;;14.97;;
15132;SDS011;7667;51.232;17.110;2022-12-18T07:01:06;22.33;;;13.37;;
15132;SDS011;7667;51.232;17.110;2022-12-18T07:03:37;23.97;;;13.47;;
15132;SDS011;7667;51.232;17.110;2022-12-18T07:06:14;23.73;;;13.40;;
15132;SDS011;7667;51.232;17.110;2022-12-18T07:08:45;25.13;;;14.10;;
15132;SDS011;7667;51.232;17.110;2022-12-18T07:11:14;22.40;;;13.57;;
15132;SDS011;7667;51.232;17.110;2022-12-18T07:13:43;24.53;;;13.80;;
15132;SDS011;7667;51.232;17.110;2022-12-18T07:16:13;22.53;;;13.30;;
15132;SDS011;7667;51.232;17.110;2022-12-18T07:18:51;25.93;;;13.93;;
15132;SDS011;7667;51.232;17.110;2022-12-18T07:21:20;26.70;;;15.17;;
15132;SDS011;7667;51.232;17.110;2022-12-18T07:23:49;25.80;;;14.43;;
15132;SDS011;7667;51.232;17.110;2022-12-18T07:26:18;28.67;;;20.23;;
15132;SDS011;7667;51.232;17.110;2022-12-18T07:28:47;27.30;;;17.00;;
15132;SDS011;7667;51.232;17.110;2022-12-18T07:31:16;23.77;;;14.60;;
15132;SDS011;7667;51.232;17.110;2022-12-18T07:33:47;26.00;;;14.50;;
15132;SDS011;7667;51.232;17.110;2022-12-18T07:36:16;26.03;;;15.20;;
15132;SDS011;7667;51.232;17.110;2022-12-18T07:38:46;28.47;;;16.40;;
15132;SDS011;7667;51.232;17.110;2022-12-18T07:41:15;27.23;;;16.20;;
15132;SDS011;7667;51.232;17.110;2022-12-18T07:43:43;27.57;;;16.53;;
15132;SDS011;7667;51.232;17.110;2022-12-18T07:46:11;27.10;;;16.47;;
15132;SDS011;7667;51.232;17.110;2022-12-18T07:48:42;27.83;;;15.97;;
15132;SDS011;7667;51.232;17.110;2022-12-18T07:51:15;28.53;;;16.47;;
15132;SDS011;7667;51.232;17.110;2022-12-18T07:53:44;31.37;;;18.73;;
15132;SDS011;7667;51.232;17.110;2022-12-18T07:56:17;34.03;;;20.80;;
15132;SDS011;7667;51.232;17.110;2022-12-18T07:58:54;30.70;;;18.37;;
15132;SDS011;7667;51.232;17.110;2022-12-18T08:01:22;30.37;;;17.47;;
15132;SDS011;7667;51.232;17.110;2022-12-18T08:03:50;30.77;;;17.20;;
15132;SDS011;7667;51.232;17.110;2022-12-18T08:06:18;31.43;;;17.70;;
15132;SDS011;7667;51.232;17.110;2022-12-18T08:08:53;32.60;;;17.93;;
15132;SDS011;7667;51.232;17.110;2022-12-18T08:11:23;30.63;;;18.57;;
15132;SDS011;7667;51.232;17.110;2022-12-18T08:13:52;32.63;;;17.43;;
15132;SDS011;7667;51.232;17.110;2022-12-18T08:16:20;32.20;;;18.23;;
15132;SDS011;7667;51.232;17.110;2022-12-18T08:18:49;35.53;;;19.10;;
15132;SDS011;7667;51.232;17.110;2022-12-18T08:21:19;45.20;;;25.83;;
15132;SDS011;7667;51.232;17.110;2022-12-18T08:23:56;34.53;;;20.03;;
15132;SDS011;7667;51.232;17.110;2022-12-18T08:26:29;39.47;;;24.77;;
15132;SDS011;7667;51.232;17.110;2022-12-18T08:28:58;40.17;;;24.00;;
15132;SDS011;7667;51.232;17.110;2022-12-18T08:31:27;40.67;;;24.80;;
15132;SDS011;7667;51.232;17.110;2022-12-18T08:33:57;35.90;;;21.77;;
15132;SDS011;7667;51.232;17.110;2022-12-18T08:36:25;35.93;;;20.63;;
15132;SDS011;7667;51.232;17.110;2022-12-18T08:38:53;38.70;;;21.57;;
15132;SDS011;7667;51.232;17.110;2022-12-18T08:41:21;37.23;;;22.13;;
15132;SDS011;7667;51.232;17.110;2022-12-18T08:43:48;41.10;;;22.63;;
15132;SDS011;7667;51.232;17.110;2022-12-18T08:46:36;39.43;;;22.70;;
15132;SDS011;7667;51.232;17.110;2022-12-18T08:49:06;36.80;;;22.23;;
15132;SDS011;7667;51.232;17.110;2022-12-18T08:51:35;36.87;;;21.73;;
15132;SDS011;7667;51.232;17.110;2022-12-18T08:54:04;37.57;;;21.40;;
15132;SDS011;7667;51.232;17.110;2022-12-18T08:56:32;41.63;;;25.80;;
15132;SDS011;7667;51.232;17.110;2022-12-18T08:59:00;39.90;;;23.93;;
15132;SDS011;7667;51.232;17.110;2022-12-18T09:01:28;40.17;;;22.23;;
15132;SDS011;7667;51.232;17.110;2022-12-18T09:03:56;37.27;;;23.57;;
15132;SDS011;7667;51.232;17.110;2022-12-18T09:06:24;35.20;;;21.63;;
15132;SDS011;7667;51.232;17.110;2022-12-18T09:08:53;48.30;;;28.30;;
15132;SDS011;7667;51.232;17.110;2022-12-18T09:11:21;38.10;;;23.03;;
15132;SDS011;7667;51.232;17.110;2022-12-18T09:13:54;34.83;;;21.53;;
15132;SDS011;7667;51.232;17.110;2022-12-18T09:16:23;34.00;;;20.63;;
15132;SDS011;7667;51.232;17.110;2022-12-18T09:18:58;37.90;;;23.27;;
15132;SDS011;7667;51.232;17.110;2022-12-18T09:21:30;54.90;;;29.33;;
15132;SDS011;7667;51.232;17.110;2022-12-18T09:24:11;38.57;;;23.20;;
15132;SDS011;7667;51.232;17.110;2022-12-18T09:26:40;37.43;;;22.73;;
15132;SDS011;7667;51.232;17.110;2022-12-18T09:29:12;39.30;;;23.40;;
15132;SDS011;7667;51.232;17.110;2022-12-18T09:31:42;34.50;;;20.73;;
15132;SDS011;7667;51.232;17.110;2022-12-18T09:34:09;32.83;;;19.40;;
15132;SDS011;7667;51.232;17.110;2022-12-18T09:36:37;30.33;;;19.20;;
15132;SDS011;7667;51.232;17.110;2022-12-18T09:39:05;31.30;;;19.23;;
15132;SDS011;7667;51.232;17.110;2022-12-18T09:41:44;32.57;;;20.47;;
15132;SDS011;7667;51.232;17.110;2022-12-18T09:44:22;30.50;;;18.17;;
15132;SDS011;7667;51.232;17.110;2022-12-18T09:47:02;28.50;;;17.57;;
15132;SDS011;7667;51.232;17.110;2022-12-18T09:49:48;27.57;;;17.60;;
15132;SDS011;7667;51.232;17.110;2022-12-18T09:57:28;27.07;;;16.83;;
15132;SDS011;7667;51.232;17.110;2022-12-18T10:00:11;27.93;;;17.00;;
15132;SDS011;7667;51.232;17.110;2022-12-18T10:02:46;29.03;;;17.63;;
15132;SDS011;7667;51.232;17.110;2022-12-18T10:05:20;27.47;;;17.40;;
15132;SDS011;7667;51.232;17.110;2022-12-18T10:08:05;27.80;;;16.80;;
15132;SDS011;7667;51.232;17.110;2022-12-18T10:10:48;30.33;;;18.17;;
15132;SDS011;7667;51.232;17.110;2022-12-18T10:16:12;33.30;;;21.73;;
15132;SDS011;7667;51.232;17.110;2022-12-18T10:27:16;27.80;;;16.23;;
15132;SDS011;7667;51.232;17.110;2022-12-18T10:29:49;28.83;;;17.27;;
15132;SDS011;7667;51.232;17.110;2022-12-18T10:32:18;28.77;;;17.73;;
15132;SDS011;7667;51.232;17.110;2022-12-18T10:34:50;25.30;;;16.90;;
15132;SDS011;7667;51.232;17.110;2022-12-18T10:37:27;28.63;;;17.90;;
15132;SDS011;7667;51.232;17.110;2022-12-18T10:40:07;28.03;;;17.33;;
15132;SDS011;7667;51.232;17.110;2022-12-18T10:43:02;27.77;;;17.47;;
15132;SDS011;7667;51.232;17.110;2022-12-18T10:45:31;27.40;;;17.43;;
15132;SDS011;7667;51.232;17.110;2022-12-18T10:47:59;29.63;;;19.30;;
15132;SDS011;7667;51.232;17.110;2022-12-18T10:50:29;27.90;;;17.77;;
15132;SDS011;7667;51.232;17.110;2022-12-18T10:53:22;28.30;;;19.47;;
15132;SDS011;7667;51.232;17.110;2022-12-18T10:55:58;29.87;;;16.30;;
15132;SDS011;7667;51.232;17.110;2022-12-18T10:58:30;25.73;;;16.10;;
15132;SDS011;7667;51.232;17.110;2022-12-18T11:01:15;28.23;;;17.33;;
15132;SDS011;7667;51.232;17.110;2022-12-18T11:06:18;42.30;;;26.50;;
15132;SDS011;7667;51.232;17.110;2022-12-18T11:11:40;29.83;;;20.23;;
15132;SDS011;7667;51.232;17.110;2022-12-18T11:14:18;29.97;;;19.03;;
15132;SDS011;7667;51.232;17.110;2022-12-18T11:17:19;31.33;;;19.80;;
15132;SDS011;7667;51.232;17.110;2022-12-18T11:20:03;27.70;;;17.13;;
15132;SDS011;7667;51.232;17.110;2022-12-18T11:22:34;28.33;;;17.43;;
15132;SDS011;7667;51.232;17.110;2022-12-18T11:28:02;25.77;;;17.20;;
15132;SDS011;7667;51.232;17.110;2022-12-18T11:30:49;30.13;;;18.17;;
15132;SDS011;7667;51.232;17.110;2022-12-18T11:36:55;28.70;;;17.33;;
15132;SDS011;7667;51.232;17.110;2022-12-18T11:42:17;28.93;;;18.33;;
15132;SDS011;7667;51.232;17.110;2022-12-18T11:45:48;30.20;;;19.53;;
15132;SDS011;7667;51.232;17.110;2022-12-18T11:50:49;30.60;;;19.93;;
15132;SDS011;7667;51.232;17.110;2022-12-18T11:53:25;31.87;;;19.30;;
15132;SDS011;7667;51.232;17.110;2022-12-18T12:05:11;30.17;;;18.33;;
15132;SDS011;7667;51.232;17.110;2022-12-18T12:07:55;31.67;;;18.60;;
15132;SDS011;7667;51.232;17.110;2022-12-18T12:14:03;35.87;;;20.33;;
15132;SDS011;7667;51.232;17.110;2022-12-18T12:20:11;37.80;;;21.83;;
15132;SDS011;7667;51.232;17.110;2022-12-18T12:22:47;35.77;;;20.73;;
15132;SDS011;7667;51.232;17.110;2022-12-18T12:28:42;37.23;;;20.80;;
15132;SDS011;7667;51.232;17.110;2022-12-18T12:34:48;37.50;;;22.77;;
15132;SDS011;7667;51.232;17.110;2022-12-18T12:40:39;37.97;;;22.10;;
15132;SDS011;7667;51.232;17.110;2022-12-18T12:46:16;37.50;;;21.93;;
15132;SDS011;7667;51.232;17.110;2022-12-18T12:54:04;40.03;;;22.23;;
15132;SDS011;7667;51.232;17.110;2022-12-18T12:56:57;37.03;;;22.57;;
15132;SDS011;7667;51.232;17.110;2022-12-18T13:05:53;38.10;;;23.33;;
15132;SDS011;7667;51.232;17.110;2022-12-18T13:08:28;35.60;;;21.30;;
15132;SDS011;7667;51.232;17.110;2022-12-18T13:11:00;42.03;;;23.60;;
15132;SDS011;7667;51.232;17.110;2022-12-18T13:13:54;39.43;;;23.40;;
15132;SDS011;7667;51.232;17.110;2022-12-18T13:16:24;39.63;;;23.27;;
15132;SDS011;7667;51.232;17.110;2022-12-18T13:18:54;39.60;;;22.90;;
15132;SDS011;7667;51.232;17.110;2022-12-18T13:21:26;41.60;;;23.90;;
15132;SDS011;7667;51.232;17.110;2022-12-18T13:23:58;52.03;;;29.77;;
15132;SDS011;7667;51.232;17.110;2022-12-18T13:26:50;69.27;;;35.33;;
15132;SDS011;7667;51.232;17.110;2022-12-18T13:32:19;65.57;;;34.07;;
15132;SDS011;7667;51.232;17.110;2022-12-18T13:37:52;40.40;;;23.27;;
15132;SDS011;7667;51.232;17.110;2022-12-18T13:48:52;38.73;;;21.80;;
15132;SDS011;7667;51.232;17.110;2022-12-18T13:51:25;36.97;;;19.80;;
15132;SDS011;7667;51.232;17.110;2022-12-18T13:53:55;34.37;;;19.80;;
15132;SDS011;7667;51.232;17.110;2022-12-18T13:56:31;35.70;;;18.60;;
15132;SDS011;7667;51.232;17.110;2022-12-18T14:01:57;34.87;;;20.17;;
15132;SDS011;7667;51.232;17.110;2022-12-18T14:04:30;42.97;;;23.33;;
15132;SDS011;7667;51.232;17.110;2022-12-18T14:10:17;38.20;;;22.67;;
15132;SDS011;7667;51.232;17.110;2022-12-18T14:13:05;47.90;;;28.60;;
15132;SDS011;7667;51.232;17.110;2022-12-18T14:20:48;35.47;;;20.40;;
15132;SDS011;7667;51.232;17.110;2022-12-18T14:23:38;32.63;;;18.80;;
15132;SDS011;7667;51.232;17.110;2022-12-18T14:26:22;36.73;;;21.60;;
15132;SDS011;7667;51.232;17.110;2022-12-18T14:28:56;32.23;;;19.10;;
15132;SDS011;7667;51.232;17.110;2022-12-18T14:31:45;41.73;;;21.30;;
15132;SDS011;7667;51.232;17.110;2022-12-18T14:34:17;39.43;;;21.73;;
15132;SDS011;7667;51.232;17.110;2022-12-18T14:36:52;37.13;;;21.97;;
15132;SDS011;7667;51.232;17.110;2022-12-18T14:39:22;42.50;;;23.50;;
15132;SDS011;7667;51.232;17.110;2022-12-18T14:41:52;46.57;;;25.67;;
15132;SDS011;7667;51.232;17.110;2022-12-18T14:44:20;44.23;;;24.73;;
15132;SDS011;7667;51.232;17.110;2022-12-18T14:46:48;42.07;;;24.27;;
15132;SDS011;7667;51.232;17.110;2022-12-18T14:49:33;58.47;;;30.83;;
15132;SDS011;7667;51.232;17.110;2022-12-18T14:52:06;45.13;;;23.50;;
15132;SDS011;7667;51.232;17.110;2022-12-18T14:54:54;40.00;;;22.50;;
15132;SDS011;7667;51.232;17.110;2022-12-18T14:57:23;42.13;;;23.97;;
15132;SDS011;7667;51.232;17.110;2022-12-18T14:59:53;41.87;;;22.77;;
15132;SDS011;7667;51.232;17.110;2022-12-18T15:02:31;49.13;;;26.30;;
15132;SDS011;7667;51.232;17.110;2022-12-18T15:07:44;48.17;;;26.50;;
15132;SDS011;7667;51.232;17.110;2022-12-18T15:20:30;68.97;;;33.57;;
15132;SDS011;7667;51.232;17.110;2022-12-18T15:23:00;53.27;;;27.47;;
15132;SDS011;7667;51.232;17.110;2022-12-18T15:25:31;51.10;;;26.90;;
15132;SDS011;7667;51.232;17.110;2022-12-18T15:28:03;49.20;;;25.03;;
15132;SDS011;7667;51.232;17.110;2022-12-18T15:33:45;52.53;;;27.10;;
15132;SDS011;7667;51.232;17.110;2022-12-18T15:36:31;48.37;;;27.27;;
15132;SDS011;7667;51.232;17.110;2022-12-18T15:39:03;50.40;;;26.47;;
15132;SDS011;7667;51.232;17.110;2022-12-18T15:41:33;44.03;;;23.00;;
15132;SDS011;7667;51.232;17.110;2022-12-18T15:44:02;48.63;;;24.57;;
15132;SDS011;7667;51.232;17.110;2022-12-18T15:46:49;47.57;;;24.53;;
15132;SDS011;7667;51.232;17.110;2022-12-18T15:49:16;48.67;;;26.10;;
15132;SDS011;7667;51.232;17.110;2022-12-18T15:51:44;51.57;;;27.30;;
15132;SDS011;7667;51.232;17.110;2022-12-18T15:54:14;47.40;;;25.97;;
15132;SDS011;7667;51.232;17.110;2022-12-18T15:56:42;44.77;;;24.30;;
15132;SDS011;7667;51.232;17.110;2022-12-18T15:59:28;46.60;;;25.40;;
15132;SDS011;7667;51.232;17.110;2022-12-18T16:01:56;44.40;;;24.30;;
15132;SDS011;7667;51.232;17.110;2022-12-18T16:04:24;49.87;;;24.83;;
15132;SDS011;7667;51.232;17.110;2022-12-18T16:06:52;46.67;;;24.67;;
15132;SDS011;7667;51.232;17.110;2022-12-18T16:09:39;49.07;;;26.13;;
15132;SDS011;7667;51.232;17.110;2022-12-18T16:12:11;44.97;;;24.30;;
15132;SDS011;7667;51.232;17.110;2022-12-18T16:14:47;44.73;;;22.90;;
15132;SDS011;7667;51.232;17.110;2022-12-18T16:17:14;47.57;;;24.93;;
15132;SDS011;7667;51.232;17.110;2022-12-18T16:19:42;45.47;;;25.60;;
15132;SDS011;7667;51.232;17.110;2022-12-18T16:22:21;44.47;;;24.13;;
15132;SDS011;7667;51.232;17.110;2022-12-18T16:24:51;52.90;;;26.43;;
15132;SDS011;7667;51.232;17.110;2022-12-18T16:27:20;49.30;;;25.00;;
15132;SDS011;7667;51.232;17.110;2022-12-18T16:29:48;53.67;;;26.37;;
15132;SDS011;7667;51.232;17.110;2022-12-18T16:32:18;52.27;;;24.40;;
15132;SDS011;7667;51.232;17.110;2022-12-18T16:34:48;49.77;;;25.23;;
15132;SDS011;7667;51.232;17.110;2022-12-18T16:37:16;52.70;;;26.97;;
15132;SDS011;7667;51.232;17.110;2022-12-18T16:39:43;49.13;;;26.10;;
15132;SDS011;7667;51.232;17.110;2022-12-18T16:42:18;53.73;;;27.63;;
15132;SDS011;7667;51.232;17.110;2022-12-18T16:44:47;50.87;;;26.80;;
15132;SDS011;7667;51.232;17.110;2022-12-18T16:47:16;48.87;;;27.47;;
15132;SDS011;7667;51.232;17.110;2022-12-18T16:49:44;48.03;;;25.73;;
15132;SDS011;7667;51.232;17.110;2022-12-18T16:52:12;47.53;;;25.90;;
15132;SDS011;7667;51.232;17.110;2022-12-18T16:54:40;49.77;;;27.03;;
15132;SDS011;7667;51.232;17.110;2022-12-18T16:57:08;47.67;;;25.10;;
15132;SDS011;7667;51.232;17.110;2022-12-18T16:59:39;55.27;;;28.30;;
15132;SDS011;7667;51.232;17.110;2022-12-18T17:02:12;55.57;;;28.63;;
15132;SDS011;7667;51.232;17.110;2022-12-18T17:04:54;50.57;;;26.27;;
15132;SDS011;7667;51.232;17.110;2022-12-18T17:07:23;55.57;;;29.40;;
15132;SDS011;7667;51.232;17.110;2022-12-18T17:09:52;58.27;;;27.50;;
15132;SDS011;7667;51.232;17.110;2022-12-18T17:12:20;50.23;;;27.17;;
15132;SDS011;7667;51.232;17.110;2022-12-18T17:14:47;50.90;;;28.00;;
15132;SDS011;7667;51.232;17.110;2022-12-18T17:17:15;53.67;;;27.63;;
15132;SDS011;7667;51.232;17.110;2022-12-18T17:19:48;51.77;;;28.40;;
15132;SDS011;7667;51.232;17.110;2022-12-18T17:22:17;53.90;;;29.33;;
15132;SDS011;7667;51.232;17.110;2022-12-18T17:24:45;54.10;;;28.07;;
15132;SDS011;7667;51.232;17.110;2022-12-18T17:27:13;54.67;;;28.87;;